createdAt,value
2023-04-13T00:00:35.182Z,99.90
2023-04-13T00:03:03.692Z,99.90
2023-04-13T00:05:34.394Z,99.90
2023-04-13T00:08:04.685Z,99.90
2023-04-13T00:10:36.183Z,99.90
2023-04-13T00:13:06.416Z,99.90
2023-04-13T00:15:36.874Z,99.90
2023-04-13T00:18:05.765Z,99.90
2023-04-13T00:20:34.071Z,99.90
2023-04-13T00:23:02.369Z,99.90
2023-04-13T00:25:31.060Z,99.90
2023-04-13T00:28:02.968Z,99.90
2023-04-13T00:30:32.666Z,99.90
2023-04-13T00:33:03.917Z,99.90
2023-04-13T00:35:32.424Z,99.90
2023-04-13T00:38:02.950Z,99.90
2023-04-13T00:40:31.529Z,99.90
2023-04-13T00:43:00.773Z,99.90
2023-04-13T00:45:29.425Z,99.90
2023-04-13T00:48:00.383Z,99.90
2023-04-13T00:50:29.302Z,99.90
2023-04-13T00:52:58.319Z,99.90
2023-04-13T00:55:27.944Z,99.90
2023-04-13T00:57:57.928Z,99.90
2023-04-13T01:00:27.040Z,99.90
2023-04-13T01:02:56.748Z,99.90
2023-04-13T01:05:29.642Z,99.90
2023-04-13T01:08:09.178Z,99.90
2023-04-13T01:10:44.315Z,99.90
2023-04-13T01:13:19.672Z,99.90
2023-04-13T01:16:01.486Z,99.90
2023-04-13T01:18:33.403Z,99.90
2023-04-13T01:21:04.613Z,99.90
2023-04-13T01:23:50.867Z,99.90
2023-04-13T01:26:22.785Z,99.90
2023-04-13T01:28:53.994Z,99.90
2023-04-13T01:31:22.851Z,99.90
2023-04-13T01:33:51.456Z,99.90
2023-04-13T01:36:21.159Z,99.90
2023-04-13T01:38:50.190Z,99.90
2023-04-13T01:41:19.252Z,99.90
2023-04-13T01:43:47.823Z,99.90
2023-04-13T01:46:22.911Z,99.90
2023-04-13T01:49:04.088Z,99.90
2023-04-13T01:51:57.572Z,99.90
2023-04-13T01:54:31.508Z,99.90
2023-04-13T01:57:02.486Z,99.90
2023-04-13T01:59:30.962Z,99.90
2023-04-13T02:02:01.026Z,99.90
2023-04-13T02:04:29.590Z,99.90
2023-04-13T02:06:58.921Z,99.90
2023-04-13T02:09:31.761Z,99.90
2023-04-13T02:12:00.029Z,99.90
2023-04-13T02:14:28.397Z,99.90
2023-04-13T02:16:59.057Z,99.90
2023-04-13T02:19:28.877Z,99.90
2023-04-13T02:21:57.174Z,99.90
2023-04-13T02:24:25.588Z,99.90
2023-04-13T02:26:53.923Z,99.90
2023-04-13T02:29:22.856Z,99.90
2023-04-13T02:31:51.152Z,99.90
2023-04-13T02:34:19.527Z,99.90
2023-04-13T02:36:49.356Z,99.90
2023-04-13T02:39:18.344Z,99.90
2023-04-13T02:41:47.571Z,99.90
2023-04-13T02:44:22.132Z,99.90
2023-04-13T02:46:56.798Z,99.90
2023-04-13T02:49:26.089Z,99.90
2023-04-13T02:52:14.514Z,99.90
2023-04-13T02:54:54.348Z,99.90
2023-04-13T02:57:26.146Z,99.90
2023-04-13T02:59:57.063Z,99.90
2023-04-13T03:02:30.222Z,99.90
2023-04-13T03:05:00.730Z,99.90
2023-04-13T03:07:33.076Z,99.90
2023-04-13T03:10:03.952Z,99.90
2023-04-13T03:12:33.144Z,99.90
2023-04-13T03:15:02.612Z,99.90
2023-04-13T03:17:32.554Z,99.90
2023-04-13T03:20:02.127Z,99.90
2023-04-13T03:22:32.257Z,99.90
2023-04-13T03:25:04.097Z,99.90
2023-04-13T03:27:37.985Z,99.90
2023-04-13T03:30:07.958Z,99.90
2023-04-13T03:32:46.020Z,99.90
2023-04-13T03:35:14.586Z,99.90
2023-04-13T03:37:44.976Z,99.90
2023-04-13T03:40:23.027Z,99.90
2023-04-13T03:42:53.963Z,99.90
2023-04-13T03:45:25.053Z,99.90
2023-04-13T03:47:55.791Z,99.90
2023-04-13T03:50:25.306Z,99.90
2023-04-13T03:52:56.166Z,99.90
2023-04-13T03:55:25.082Z,99.90
2023-04-13T03:57:56.850Z,99.90
2023-04-13T04:00:29.096Z,99.90
2023-04-13T04:03:13.803Z,99.90
2023-04-13T04:05:53.258Z,99.90
2023-04-13T04:08:23.406Z,99.90
2023-04-13T04:10:54.605Z,99.90
2023-04-13T04:13:23.481Z,99.90
2023-04-13T04:15:55.147Z,99.90
2023-04-13T04:18:23.773Z,99.90
2023-04-13T04:20:52.783Z,99.90
2023-04-13T04:23:23.220Z,99.90
2023-04-13T04:25:59.544Z,99.90
2023-04-13T04:28:38.521Z,99.90
2023-04-13T04:31:11.050Z,99.90
2023-04-13T04:33:41.669Z,99.90
2023-04-13T04:36:16.412Z,99.90
2023-04-13T04:39:02.781Z,99.90
2023-04-13T04:41:37.940Z,99.90
2023-04-13T04:44:09.135Z,99.90
2023-04-13T04:46:41.958Z,99.90
2023-04-13T04:49:14.340Z,99.90
2023-04-13T04:51:42.928Z,99.90
2023-04-13T04:54:16.897Z,99.90
2023-04-13T04:56:48.064Z,99.90
2023-04-13T04:59:19.761Z,99.90
2023-04-13T05:01:57.652Z,99.90
2023-04-13T05:04:26.092Z,99.90
2023-04-13T05:06:54.866Z,99.90
2023-04-13T05:09:28.174Z,99.90
2023-04-13T05:11:58.147Z,99.90
2023-04-13T05:14:26.665Z,99.90
2023-04-13T05:16:55.548Z,99.90
2023-04-13T05:19:31.626Z,99.90
2023-04-13T05:22:10.090Z,99.90
2023-04-13T05:24:46.440Z,99.90
2023-04-13T05:27:17.510Z,99.90
2023-04-13T05:29:47.895Z,99.90
2023-04-13T05:32:20.552Z,99.90
2023-04-13T05:34:52.746Z,99.90
2023-04-13T05:37:27.268Z,99.90
2023-04-13T05:39:57.269Z,99.90
2023-04-13T05:42:32.177Z,99.90
2023-04-13T05:45:01.828Z,99.90
2023-04-13T05:47:31.838Z,99.90
2023-04-13T05:50:07.863Z,99.90
2023-04-13T05:52:36.333Z,99.90
2023-04-13T05:55:07.046Z,99.90
2023-04-13T05:57:35.995Z,99.90
2023-04-13T06:00:10.625Z,99.90
2023-04-13T06:02:42.170Z,99.90
2023-04-13T06:05:15.157Z,99.90
2023-04-13T06:07:45.065Z,99.90
2023-04-13T06:10:16.914Z,99.90
2023-04-13T06:12:48.424Z,99.90
2023-04-13T06:15:17.329Z,99.90
2023-04-13T06:17:45.772Z,99.90
2023-04-13T06:20:16.412Z,99.90
2023-04-13T06:22:44.815Z,99.90
2023-04-13T06:25:16.510Z,99.90
2023-04-13T06:27:49.935Z,99.90
2023-04-13T06:30:19.977Z,99.90
2023-04-13T06:32:52.024Z,99.90
2023-04-13T06:35:23.480Z,99.90
2023-04-13T06:37:53.119Z,99.90
2023-04-13T06:40:28.881Z,99.90
2023-04-13T06:43:06.200Z,99.90
2023-04-13T06:45:48.971Z,99.90
2023-04-13T06:48:23.816Z,99.90
2023-04-13T06:50:57.571Z,99.90
2023-04-13T06:53:26.076Z,99.90
2023-04-13T06:55:55.802Z,99.90
2023-04-13T06:58:24.096Z,99.90
2023-04-13T07:00:52.472Z,99.90
2023-04-13T07:03:21.319Z,99.90
2023-04-13T07:05:49.734Z,99.90
2023-04-13T07:08:19.555Z,99.90
2023-04-13T07:10:55.909Z,99.90
2023-04-13T07:13:35.664Z,98.70
2023-04-13T07:16:05.551Z,93.40
2023-04-13T07:18:37.187Z,91.20
2023-04-13T07:21:06.123Z,92.60
2023-04-13T07:23:45.725Z,92.60
2023-04-13T07:26:17.818Z,93.10
2023-04-13T07:28:46.404Z,93.60
2023-04-13T07:31:16.230Z,93.80
2023-04-13T07:33:48.333Z,94.60
2023-04-13T07:36:20.615Z,95.20
2023-04-13T07:38:52.533Z,95.50
2023-04-13T07:41:24.338Z,95.80
2023-04-13T07:43:58.372Z,95.90
2023-04-13T07:46:27.561Z,96.20
2023-04-13T07:48:56.920Z,96.10
2023-04-13T07:51:29.988Z,96.30
2023-04-13T07:53:58.622Z,96.60
2023-04-13T07:56:32.087Z,96.50
2023-04-13T07:59:02.245Z,96.50
2023-04-13T08:01:31.528Z,96.00
2023-04-13T08:04:03.477Z,96.40
2023-04-13T08:06:33.283Z,96.80
2023-04-13T08:09:02.956Z,96.10
2023-04-13T08:11:33.281Z,96.10
2023-04-13T08:14:09.830Z,95.90
2023-04-13T08:16:39.557Z,95.90
2023-04-13T08:19:11.154Z,95.70
2023-04-13T08:21:47.239Z,95.00
2023-04-13T08:24:15.747Z,95.40
2023-04-13T08:26:45.673Z,95.40
2023-04-13T08:29:15.497Z,95.10
2023-04-13T08:31:43.977Z,94.60
2023-04-13T08:34:14.076Z,94.40
2023-04-13T08:36:42.465Z,94.60
2023-04-13T08:39:12.038Z,94.30
2023-04-13T08:41:46.591Z,93.90
2023-04-13T08:44:17.729Z,94.00
2023-04-13T08:46:51.231Z,93.50
2023-04-13T08:49:27.149Z,92.90
2023-04-13T08:52:13.372Z,92.90
2023-04-13T08:54:45.884Z,93.20
2023-04-13T08:57:22.334Z,93.20
2023-04-13T08:59:53.002Z,92.90
2023-04-13T09:02:26.627Z,93.10
2023-04-13T09:05:05.505Z,92.30
2023-04-13T09:07:36.950Z,92.50
2023-04-13T09:10:12.461Z,90.90
2023-04-13T09:12:42.246Z,91.00
2023-04-13T09:15:14.755Z,90.00
2023-04-13T09:18:09.446Z,87.30
2023-04-13T09:20:41.441Z,82.90
2023-04-13T09:23:17.227Z,81.10
2023-04-13T09:25:46.848Z,73.40
2023-04-13T09:28:21.407Z,70.90
2023-04-13T09:30:49.879Z,69.90
2023-04-13T09:33:18.804Z,67.00
2023-04-13T09:35:47.081Z,68.10
2023-04-13T09:38:17.104Z,67.90
2023-04-13T09:40:54.294Z,64.90
2023-04-13T09:43:24.067Z,60.30
2023-04-13T09:45:52.391Z,60.40
2023-04-13T09:48:22.515Z,63.00
2023-04-13T09:51:15.153Z,66.50
2023-04-13T09:53:45.789Z,69.00
2023-04-13T09:56:14.156Z,73.60
2023-04-13T09:58:48.848Z,73.20
2023-04-13T10:01:17.358Z,70.50
2023-04-13T10:03:46.049Z,70.00
2023-04-13T10:06:14.446Z,72.40
2023-04-13T10:08:43.101Z,73.80
2023-04-13T10:11:15.146Z,74.60
2023-04-13T10:13:51.087Z,75.60
2023-04-13T10:16:43.443Z,73.90
2023-04-13T10:19:14.274Z,74.30
2023-04-13T10:21:47.571Z,73.90
2023-04-13T10:24:17.283Z,75.20
2023-04-13T10:26:45.948Z,77.60
2023-04-13T10:29:16.791Z,78.40
2023-04-13T10:31:47.797Z,77.70
2023-04-13T10:34:25.660Z,77.50
2023-04-13T10:37:01.147Z,78.30
2023-04-13T10:39:31.997Z,76.80
2023-04-13T10:42:01.669Z,76.30
2023-04-13T10:44:42.486Z,76.50
2023-04-13T10:47:11.305Z,75.90
2023-04-13T10:49:40.791Z,76.60
2023-04-13T10:52:10.742Z,76.40
2023-04-13T10:57:43.891Z,76.70
2023-04-13T11:00:25.538Z,74.80
2023-04-13T11:03:02.871Z,76.40
2023-04-13T11:05:31.886Z,76.80
2023-04-13T11:08:01.047Z,76.40
2023-04-13T11:10:30.084Z,76.50
2023-04-13T11:12:59.576Z,76.60
2023-04-13T11:15:32.871Z,77.80
2023-04-13T11:18:02.612Z,75.10
2023-04-13T11:20:32.760Z,74.80
2023-04-13T11:23:03.671Z,73.30
2023-04-13T11:25:32.326Z,74.90
2023-04-13T11:28:01.795Z,72.50
2023-04-13T11:30:32.650Z,72.20
2023-04-13T11:33:02.437Z,73.10
2023-04-13T11:35:30.946Z,73.50
2023-04-13T11:37:59.702Z,73.40
2023-04-13T11:40:29.081Z,73.60
2023-04-13T11:42:58.845Z,73.60
2023-04-13T11:45:32.246Z,74.00
2023-04-13T11:48:04.551Z,74.90
2023-04-13T11:50:33.767Z,76.60
2023-04-13T11:53:02.473Z,72.00
2023-04-13T11:55:34.758Z,73.50
2023-04-13T11:58:11.912Z,72.80
2023-04-13T12:00:41.979Z,72.90
2023-04-13T12:03:34.693Z,73.40
2023-04-13T12:06:04.695Z,74.80
2023-04-13T12:08:33.884Z,74.60
2023-04-13T12:14:05.880Z,73.90
2023-04-13T12:17:03.280Z,76.30
2023-04-13T12:19:27.568Z,74.70
2023-04-13T12:21:57.469Z,74.20
2023-04-13T12:24:34.139Z,74.00
2023-04-13T12:29:39.428Z,74.00
2023-04-13T12:32:14.614Z,74.40
2023-04-13T12:34:43.526Z,75.50
2023-04-13T12:37:12.354Z,75.70
2023-04-13T12:39:40.684Z,73.60
2023-04-13T12:42:08.909Z,70.80
2023-04-13T12:44:37.233Z,70.50
2023-04-13T12:47:06.279Z,72.00
2023-04-13T12:49:35.997Z,73.40
2023-04-13T12:52:04.378Z,74.30
2023-04-13T12:54:32.614Z,74.60
2023-04-13T12:57:01.638Z,71.00
2023-04-13T12:59:29.874Z,72.20
2023-04-13T13:01:58.287Z,72.30
2023-04-13T13:04:30.147Z,71.50
2023-04-13T13:07:00.494Z,71.80
2023-04-13T13:09:29.255Z,67.80
2023-04-13T13:11:58.064Z,64.80
2023-04-13T13:14:26.420Z,69.10
2023-04-13T13:16:54.749Z,67.70
2023-04-13T13:19:23.120Z,68.70
2023-04-13T13:22:13.636Z,66.10
2023-04-13T13:24:41.936Z,63.80
2023-04-13T13:29:41.998Z,63.20
2023-04-13T13:32:34.008Z,65.20
2023-04-13T13:35:03.174Z,64.70
2023-04-13T13:37:32.878Z,64.70
2023-04-13T13:40:01.854Z,67.30
2023-04-13T13:42:37.602Z,67.00
2023-04-13T13:45:16.696Z,67.10
2023-04-13T13:47:47.148Z,64.30
2023-04-13T13:50:15.689Z,65.00
2023-04-13T13:53:02.348Z,59.70
2023-04-13T13:55:34.797Z,62.80
2023-04-13T13:58:03.641Z,62.10
2023-04-13T14:00:32.318Z,61.10
2023-04-13T14:03:01.420Z,64.00
2023-04-13T14:05:29.718Z,64.60
2023-04-13T14:07:59.404Z,64.70
2023-04-13T14:10:27.717Z,63.20
2023-04-13T14:12:58.238Z,62.00
2023-04-13T14:15:28.399Z,63.70
2023-04-13T14:18:09.689Z,62.00
2023-04-13T14:20:40.141Z,64.50
2023-04-13T14:23:10.189Z,63.30
2023-04-13T14:25:39.679Z,63.30
2023-04-13T14:28:09.281Z,64.80
2023-04-13T14:30:37.885Z,64.30
2023-04-13T14:33:07.514Z,64.50
2023-04-13T14:35:35.853Z,64.30
2023-04-13T14:38:05.493Z,61.60
2023-04-13T14:40:35.995Z,60.60
2023-04-13T14:43:08.621Z,58.10
2023-04-13T14:45:36.934Z,63.50
2023-04-13T14:48:05.615Z,65.20
2023-04-13T14:50:34.055Z,65.90
2023-04-13T14:53:04.708Z,68.00
2023-04-13T14:55:34.596Z,66.80
2023-04-13T14:58:03.599Z,65.80
2023-04-13T15:00:41.126Z,67.00
2023-04-13T15:03:10.945Z,67.30
2023-04-13T15:05:40.361Z,62.20
2023-04-13T15:08:11.519Z,65.90
2023-04-13T15:10:42.488Z,66.40
2023-04-13T15:13:11.018Z,66.00
2023-04-13T15:15:40.468Z,65.90
2023-04-13T15:18:14.529Z,67.80
2023-04-13T15:20:46.140Z,68.00
2023-04-13T15:23:16.386Z,66.70
2023-04-13T15:25:47.680Z,65.70
2023-04-13T15:28:16.029Z,66.50
2023-04-13T15:30:45.549Z,65.80
2023-04-13T15:33:14.106Z,66.60
2023-04-13T15:35:42.549Z,67.70
2023-04-13T15:38:12.053Z,67.20
2023-04-13T15:40:41.652Z,67.50
2023-04-13T15:43:15.798Z,67.00
2023-04-13T15:45:44.299Z,68.10
2023-04-13T15:48:14.420Z,68.00
2023-04-13T15:50:42.892Z,67.30
2023-04-13T15:53:13.707Z,69.60
2023-04-13T15:55:42.587Z,69.80
2023-04-13T15:58:14.422Z,72.10
2023-04-13T16:00:42.933Z,72.70
2023-04-13T16:03:11.267Z,73.10
2023-04-13T16:05:40.887Z,74.20
2023-04-13T16:08:09.368Z,74.90
2023-04-13T16:10:39.620Z,76.70
2023-04-13T16:13:18.729Z,77.70
2023-04-13T16:15:53.153Z,74.80
2023-04-13T16:18:22.285Z,75.30
2023-04-13T16:20:54.300Z,76.40
2023-04-13T16:23:23.750Z,77.80
2023-04-13T16:25:52.134Z,78.70
2023-04-13T16:28:20.960Z,79.70
2023-04-13T16:30:50.770Z,80.30
2023-04-13T16:33:19.180Z,81.30
2023-04-13T16:35:47.486Z,79.50
2023-04-13T16:38:16.003Z,81.30
2023-04-13T16:40:44.559Z,81.30
2023-04-13T16:43:12.796Z,82.30
2023-04-13T16:45:42.139Z,81.30
2023-04-13T16:48:12.250Z,80.80
2023-04-13T16:50:40.717Z,82.40
2023-04-13T16:53:08.979Z,82.00
2023-04-13T16:55:37.240Z,82.90
2023-04-13T16:58:07.424Z,84.20
2023-04-13T17:00:35.867Z,84.90
2023-04-13T17:03:04.299Z,85.60
2023-04-13T17:05:33.945Z,86.00
2023-04-13T17:08:02.290Z,86.30
2023-04-13T17:10:30.548Z,87.10
2023-04-13T17:12:58.784Z,87.60
2023-04-13T17:15:27.047Z,88.10
2023-04-13T17:17:55.583Z,89.30
2023-04-13T17:20:24.028Z,89.70
2023-04-13T17:22:54.214Z,89.70
2023-04-13T17:25:22.473Z,90.30
2023-04-13T17:27:52.825Z,90.40
2023-04-13T17:30:21.854Z,90.80
2023-04-13T17:32:50.657Z,91.10
2023-04-13T17:35:19.304Z,91.30
2023-04-13T17:37:47.717Z,91.60
2023-04-13T17:40:17.394Z,91.70
2023-04-13T17:42:45.787Z,92.00
2023-04-13T17:45:14.012Z,92.20
2023-04-13T17:47:43.298Z,92.30
2023-04-13T17:50:12.314Z,92.50
2023-04-13T17:52:41.489Z,92.50
2023-04-13T17:55:10.367Z,92.60
2023-04-13T17:57:40.133Z,92.90
2023-04-13T18:00:09.592Z,93.20
2023-04-13T18:02:39.401Z,93.20
2023-04-13T18:05:15.196Z,93.20
2023-04-13T18:07:46.413Z,93.40
2023-04-13T18:10:15.064Z,93.70
2023-04-13T18:12:44.726Z,93.60
2023-04-13T18:15:13.290Z,93.70
2023-04-13T18:17:42.474Z,93.90
2023-04-13T18:20:11.944Z,94.00
2023-04-13T18:22:40.318Z,94.20
2023-04-13T18:25:09.839Z,94.20
2023-04-13T18:27:38.136Z,94.30
2023-04-13T18:30:09.416Z,94.50
2023-04-13T18:32:37.773Z,94.70
2023-04-13T18:35:06.500Z,94.80
2023-04-13T18:37:34.810Z,94.80
2023-04-13T18:40:04.578Z,94.90
2023-04-13T18:42:33.507Z,95.00
2023-04-13T18:45:01.841Z,95.50
2023-04-13T18:47:31.670Z,95.30
2023-04-13T18:50:00.048Z,95.40
2023-04-13T18:52:28.602Z,95.40
2023-04-13T18:54:56.881Z,95.50
2023-04-13T18:57:25.150Z,95.50
2023-04-13T18:59:53.408Z,95.60
2023-04-13T19:02:22.065Z,95.80
2023-04-13T19:04:51.873Z,96.00
2023-04-13T19:07:20.217Z,96.10
2023-04-13T19:09:48.672Z,96.20
2023-04-13T19:12:16.987Z,96.30
2023-04-13T19:14:46.736Z,96.50
2023-04-13T19:17:16.489Z,96.50
2023-04-13T19:19:44.979Z,96.50
2023-04-13T19:22:14.668Z,97.00
2023-04-13T19:24:43.001Z,97.10
2023-04-13T19:27:11.288Z,97.20
2023-04-13T19:29:43.949Z,97.20
2023-04-13T19:32:16.606Z,97.30
2023-04-13T19:34:45.157Z,97.50
2023-04-13T19:37:15.119Z,97.60
2023-04-13T19:39:43.434Z,97.70
2023-04-13T19:42:11.976Z,97.80
2023-04-13T19:44:40.337Z,98.10
2023-04-13T19:47:08.617Z,98.30
2023-04-13T19:49:36.998Z,98.40
2023-04-13T19:52:05.663Z,98.60
2023-04-13T19:54:35.354Z,98.80
2023-04-13T19:57:03.714Z,98.90
2023-04-13T19:59:32.081Z,99.00
2023-04-13T20:02:03.011Z,99.10
2023-04-13T20:04:31.634Z,99.40
2023-04-13T20:07:00.351Z,99.70
2023-04-13T20:09:28.972Z,99.80
2023-04-13T20:11:58.932Z,99.90
2023-04-13T20:14:27.434Z,99.90
2023-04-13T20:16:55.762Z,99.90
2023-04-13T20:19:27.033Z,99.90
2023-04-13T20:21:55.367Z,99.90
2023-04-13T20:24:24.001Z,99.90
2023-04-13T20:26:53.617Z,99.90
2023-04-13T20:29:26.868Z,99.90
2023-04-13T20:31:57.808Z,99.90
2023-04-13T20:34:27.984Z,99.90
2023-04-13T20:36:58.810Z,99.90
2023-04-13T20:39:30.176Z,99.90
2023-04-13T20:42:04.610Z,99.90
2023-04-13T20:44:37.962Z,99.90
2023-04-13T20:47:08.355Z,99.90
2023-04-13T20:49:37.811Z,99.90
2023-04-13T20:52:06.772Z,99.90
2023-04-13T20:54:35.030Z,99.90
2023-04-13T20:57:03.528Z,99.90
2023-04-13T20:59:34.758Z,99.90
2023-04-13T21:02:03.148Z,99.90
2023-04-13T21:04:31.955Z,99.90
2023-04-13T21:07:02.303Z,99.90
2023-04-13T21:09:30.939Z,99.90
2023-04-13T21:11:59.326Z,99.90
2023-04-13T21:14:27.700Z,99.90
2023-04-13T21:16:57.664Z,99.90
2023-04-13T21:19:26.393Z,99.90
2023-04-13T21:21:57.366Z,99.90
2023-04-13T21:24:25.689Z,99.90
2023-04-13T21:26:53.963Z,99.90
2023-04-13T21:29:22.255Z,99.90
2023-04-13T21:31:50.771Z,99.90
2023-04-13T21:34:22.619Z,99.90
2023-04-13T21:36:52.115Z,99.90
2023-04-13T21:39:20.750Z,99.90
2023-04-13T21:41:49.061Z,99.90
2023-04-13T21:44:29.458Z,99.90
2023-04-13T21:46:58.462Z,99.90
2023-04-13T21:49:28.412Z,99.90
2023-04-13T21:51:56.666Z,99.90
2023-04-13T21:54:25.016Z,99.90
2023-04-13T21:56:53.316Z,99.90
2023-04-13T21:59:21.648Z,99.90
2023-04-13T22:01:50.076Z,99.90
2023-04-13T22:04:18.483Z,99.90
2023-04-13T22:06:48.199Z,99.90
2023-04-13T22:09:17.057Z,99.90
2023-04-13T22:11:45.515Z,99.90
2023-04-13T22:14:13.829Z,99.90
2023-04-13T22:16:42.220Z,99.90
2023-04-13T22:19:10.748Z,99.90
2023-04-13T22:21:39.150Z,99.90
2023-04-13T22:24:08.962Z,99.90
2023-04-13T22:26:37.260Z,99.90
2023-04-13T22:29:05.838Z,99.90
2023-04-13T22:31:34.096Z,99.90
2023-04-13T22:34:02.368Z,99.90
2023-04-13T22:36:30.717Z,99.90
2023-04-13T22:38:59.217Z,99.90
2023-04-13T22:41:29.257Z,99.90
2023-04-13T22:43:57.521Z,99.90
2023-04-13T22:46:26.003Z,99.90
2023-04-13T22:48:54.306Z,99.90
2023-04-13T22:51:22.590Z,99.90
2023-04-13T22:53:50.835Z,99.90
2023-04-13T22:56:19.189Z,99.90
2023-04-13T22:58:48.891Z,99.90
2023-04-13T23:01:17.158Z,99.90
2023-04-13T23:03:45.639Z,99.90
2023-04-13T23:06:13.967Z,99.90
2023-04-13T23:08:42.128Z,99.90
2023-04-13T23:11:10.929Z,99.90
2023-04-13T23:13:40.100Z,99.90
2023-04-13T23:16:09.917Z,99.90
2023-04-13T23:18:38.168Z,99.90
2023-04-13T23:21:13.569Z,99.90
2023-04-13T23:23:41.792Z,99.90
2023-04-13T23:26:10.160Z,99.90
2023-04-13T23:28:38.444Z,99.90
2023-04-13T23:31:07.159Z,99.90
2023-04-13T23:33:39.722Z,99.90
2023-04-13T23:36:08.698Z,99.90
2023-04-13T23:38:36.979Z,99.90
2023-04-13T23:41:05.339Z,99.90
2023-04-13T23:43:33.726Z,99.90
2023-04-13T23:46:02.216Z,99.90
2023-04-13T23:48:30.682Z,99.90
2023-04-13T23:51:00.401Z,99.90
2023-04-13T23:53:29.122Z,99.90
2023-04-13T23:55:57.301Z,99.90
2023-04-13T23:58:25.547Z,99.90
